Extra Credit — WDI7527 — position and weather

sailwx.info

Track history (hours):
 
Tides and Currents Weather Stations Pressure Air Temp Water Temp Dewpoint Dewpoint Depression Visibility Wind Speed Wind Dir Waves Ship Positions

Extra Credit

Owner: Braun, Brent, Winamac, IN. More information available from US FCC via Universal Licensing System and Coast Guard Vessel Documentation Center.

Last reported at 2017-Nov-01 18:16 UTC. Time now 2017-Nov-22 16:45 UTC.
Position N 26°04' W 080°06'.
Warning: this ship's position is 20 days out of date.

Length 8 m.

Type: Pleasure craft. MMSI: 367729580.

Date/timePositionNaut miles runAvg speedWind from/ knotsBaromVisibWave heightAir tempDewpointWater temp
2017-Nov-01 18:16N 26°04' W 080°06'25 0.9
2017-Oct-31 15:05N 25°39' W 080°10'313.2
2017-Oct-31 14:53N 25°42' W 080°11'512.1
2017-Oct-31 14:30N 25°46' W 080°11'1 2.8
2017-Oct-31 14:00N 25°47' W 080°09'1 2.2
2017-Oct-31 13:30N 25°46' W 080°08'815.5
2017-Oct-31 13:00N 25°54' W 080°08'610.8
2017-Oct-31 12:30N 25°59' W 080°07'8 9.4
2017-Oct-31 11:39N 26°07' W 080°09'1 5.1
2017-Oct-31 11:27N 26°06' W 080°10'2 4.5
2017-Oct-31 10:59N 26°05' W 080°12'0 0.0
2017-Oct-31 10:22N 26°05' W 080°12'0 0.0
2017-Oct-31 09:52N 26°05' W 080°12'0 0.0
2017-Oct-31 09:19N 26°05' W 080°12'0 0.0
2017-Oct-31 08:52N 26°05' W 080°12'0 0.0
2017-Oct-31 08:22N 26°05' W 080°12'0 0.0
2017-Oct-31 07:52N 26°05' W 080°12'0 0.0
2017-Oct-31 07:22N 26°05' W 080°12'0 0.0
2017-Oct-31 06:49N 26°05' W 080°12'0 0.0
2017-Oct-31 06:22N 26°05' W 080°12'0 0.0
2017-Oct-31 05:46N 26°05' W 080°12'0 0.0
2017-Oct-31 05:22N 26°05' W 080°12'0 0.0
2017-Oct-31 04:33N 26°05' W 080°12'0 0.1
2017-Oct-31 04:30N 26°05' W 080°12'0 0.0
2017-Oct-31 04:00N 26°05' W 080°12'0 0.0
2017-Oct-31 03:30N 26°05' W 080°12'0 0.0
2017-Oct-31 02:52N 26°05' W 080°12'0 0.0
2017-Oct-31 02:22N 26°05' W 080°12'0 0.0
2017-Oct-31 01:52N 26°05' W 080°12'0 0.0
2017-Oct-31 01:19N 26°05' W 080°12'0 0.0
2017-Oct-31 00:52N 26°05' W 080°12'0 0.0
2017-Oct-31 00:22N 26°05' W 080°12'0 0.0
2017-Oct-30 23:52N 26°05' W 080°12'0 0.0
2017-Oct-30 23:30N 26°05' W 080°12'0 0.0
2017-Oct-30 22:51N 26°05' W 080°12'0 0.0
2017-Oct-30 22:21N 26°05' W 080°12'0 0.0
2017-Oct-30 21:58N 26°05' W 080°12'0 0.0
2017-Oct-30 21:28N 26°05' W 080°12'0 0.0
2017-Oct-30 20:58N 26°05' W 080°12'0 0.0
2017-Oct-30 20:28N 26°05' W 080°12'0 0.0
2017-Oct-30 19:58N 26°05' W 080°12'0 0.0
2017-Oct-30 19:28N 26°05' W 080°12'0 0.0
2017-Oct-30 18:58N 26°05' W 080°12'0 0.0
2017-Oct-30 18:28N 26°05' W 080°12'0 0.0
2017-Oct-30 17:58N 26°05' W 080°12'0 0.0
2017-Oct-30 17:28N 26°05' W 080°12'0 0.0
2017-Oct-30 16:58N 26°05' W 080°12'1 0.9
2017-Oct-30 16:25N 26°05' W 080°11'1 3.5
2017-Oct-30 16:01N 26°06' W 080°10'2 3.9
2017-Oct-30 15:22N 26°07' W 080°07'0 0.3
2017-Oct-30 14:54N 26°07' W 080°07'0 0.0
2017-Oct-30 14:24N 26°07' W 080°07'0 0.0
2017-Oct-30 13:24N 26°07' W 080°07'0 0.0
2017-Oct-30 12:39N 26°07' W 080°07'0 0.0
2017-Oct-30 12:27N 26°07' W 080°07'0 0.0
2017-Oct-30 11:57N 26°07' W 080°07'0 0.0
2017-Oct-30 11:27N 26°07' W 080°07'0 0.0
2017-Oct-30 10:57N 26°07' W 080°07'0 0.0
2017-Oct-30 10:30N 26°07' W 080°07'0 0.0
2017-Oct-30 09:48N 26°07' W 080°07'0 0.0
2017-Oct-30 08:33N 26°07' W 080°07'0 0.0
2017-Oct-30 08:18N 26°07' W 080°07'0 0.0
2017-Oct-30 07:48N 26°07' W 080°07'0 0.0
2017-Oct-30 07:18N 26°07' W 080°07'0 0.0
2017-Oct-30 07:00N 26°07' W 080°07'0 0.0
2017-Oct-30 06:27N 26°07' W 080°07'0 0.0
2017-Oct-30 06:00N 26°07' W 080°07'0 0.0
2017-Oct-30 05:24N 26°07' W 080°07'0 0.0
2017-Oct-30 04:53N 26°07' W 080°07'0 0.0
2017-Oct-30 04:23N 26°07' W 080°07'0 0.0
2017-Oct-30 03:53N 26°07' W 080°07'0 0.0
2017-Oct-30 03:20N 26°07' W 080°07'0 0.0
2017-Oct-30 02:50N 26°07' W 080°07'0 0.0
2017-Oct-30 02:20N 26°07' W 080°07'0 0.0
2017-Oct-30 01:31N 26°07' W 080°07'0 0.0
2017-Oct-30 01:28N 26°07' W 080°07'0 0.0
2017-Oct-30 00:58N 26°07' W 080°07'0 0.0
2017-Oct-30 00:16N 26°07' W 080°07'0 0.0
2017-Oct-29 23:58N 26°07' W 080°07'0 0.0
2017-Oct-29 22:57N 26°07' W 080°07'0 0.0
2017-Oct-29 18:14N 26°07' W 080°07'0 0.0
2017-Oct-29 16:29N 26°07' W 080°07'0 0.0
2017-Oct-29 14:25N 26°07' W 080°07'0 0.0
2017-Oct-29 13:55N 26°07' W 080°07'0 0.0
2017-Oct-29 13:19N 26°07' W 080°07'0 0.0
2017-Oct-29 12:22N 26°07' W 080°07'0 0.0
2017-Oct-29 11:52N 26°07' W 080°07'0 0.0
2017-Oct-29 11:19N 26°07' W 080°07'0 0.0
2017-Oct-29 10:31N 26°07' W 080°07'0 0.0
2017-Oct-29 09:19N 26°07' W 080°07'0 0.0
2017-Oct-29 08:48N 26°07' W 080°07'0 0.0
2017-Oct-29 07:48N 26°07' W 080°07'0 0.0
2017-Oct-29 07:24N 26°07' W 080°07'0 0.0
2017-Oct-29 07:00N 26°07' W 080°07'0 0.0
2017-Oct-29 06:20N 26°07' W 080°07'0 0.0
2017-Oct-29 05:56N 26°07' W 080°07'0 0.0
2017-Oct-29 05:29N 26°07' W 080°07'0 0.0
2017-Oct-29 04:56N 26°07' W 080°07'0 0.0
2017-Oct-29 04:26N 26°07' W 080°07'0 0.0
2017-Oct-29 03:37N 26°07' W 080°07'0 0.0
2017-Oct-28 18:04N 26°07' W 080°07'0 0.0
2017-Oct-28 17:49N 26°07' W 080°07'0 0.0
2017-Oct-28 17:19N 26°07' W 080°07'0 0.0
2017-Oct-28 16:34N 26°07' W 080°07'0 0.0
2017-Oct-28 16:22N 26°07' W 080°07'0 0.0
2017-Oct-28 15:52N 26°07' W 080°07'0 0.0
2017-Oct-28 15:07N 26°07' W 080°07'0 0.0
2017-Oct-28 14:40N 26°07' W 080°07'0 0.0
2017-Oct-28 14:22N 26°07' W 080°07'0 0.0
2017-Oct-28 13:54N 26°07' W 080°07'0 0.0
2017-Oct-28 13:24N 26°07' W 080°07'0 0.0
2017-Oct-28 12:51N 26°07' W 080°07'0 0.0
2017-Oct-28 12:21N 26°07' W 080°07'0 0.0
2017-Oct-28 11:58N 26°07' W 080°07'0 0.0
2017-Oct-28 11:24N 26°07' W 080°07'0 0.0
2017-Oct-28 10:54N 26°07' W 080°07'0 0.0
2017-Oct-28 10:24N 26°07' W 080°07'0 0.0
2017-Oct-28 09:51N 26°07' W 080°07'0 0.0
2017-Oct-28 09:27N 26°07' W 080°07'0 0.0
2017-Oct-28 08:54N 26°07' W 080°07'0 0.0
2017-Oct-28 08:24N 26°07' W 080°07'0 0.0
2017-Oct-28 07:57N 26°07' W 080°07'0 0.0
2017-Oct-28 07:06N 26°07' W 080°07'0 0.0
2017-Oct-28 06:54N 26°07' W 080°07'0 0.0
2017-Oct-28 06:24N 26°07' W 080°07'0 0.0
2017-Oct-28 05:51N 26°07' W 080°07'0 0.0
2017-Oct-28 05:24N 26°07' W 080°07'0 0.0
2017-Oct-28 04:54N 26°07' W 080°07'0 0.0
2017-Oct-28 04:24N 26°07' W 080°07'0 0.0
2017-Oct-28 03:54N 26°07' W 080°07'0 0.0
2017-Oct-28 03:24N 26°07' W 080°07'0 0.0
2017-Oct-28 02:48N 26°07' W 080°07'0 0.0
2017-Oct-28 02:29N 26°07' W 080°07'0 0.0
2017-Oct-28 01:50N 26°07' W 080°07'0 0.0
2017-Oct-28 01:29N 26°07' W 080°07'0 0.0
2017-Oct-28 00:02N 26°07' W 080°07'0 0.0
2017-Oct-27 23:59N 26°07' W 080°07'0 0.0
2017-Oct-27 22:59N 26°07' W 080°07'0 0.0
2017-Oct-27 22:29N 26°07' W 080°07'0 0.0
2017-Oct-27 14:52N 26°07' W 080°07'0 0.0
2017-Oct-27 14:25N 26°07' W 080°07'0 0.0
2017-Oct-27 13:55N 26°07' W 080°07'0 0.0
2017-Oct-27 13:10N 26°07' W 080°07'0 0.0
2017-Oct-27 12:52N 26°07' W 080°07'0 0.0
2017-Oct-27 12:25N 26°07' W 080°07'0 0.0
2017-Oct-27 11:40N 26°07' W 080°07'0 0.0
2017-Oct-27 11:25N 26°07' W 080°07'0 0.0
2017-Oct-27 10:52N 26°07' W 080°07'0 0.0
2017-Oct-27 10:22N 26°07' W 080°07'0 0.0
2017-Oct-27 09:49N 26°07' W 080°07'0 0.0
2017-Oct-27 09:19N 26°07' W 080°07'0 0.0
2017-Oct-27 08:55N 26°07' W 080°07'0 0.0
2017-Oct-27 08:25N 26°07' W 080°07'0 0.0
2017-Oct-27 07:49N 26°07' W 080°07'0 0.0
2017-Oct-27 07:25N 26°07' W 080°07'0 0.0
2017-Oct-27 06:55N 26°07' W 080°07'0 0.0
2017-Oct-27 06:19N 26°07' W 080°07'0 0.0
2017-Oct-27 05:55N 26°07' W 080°07'0 0.0
2017-Oct-27 05:25N 26°07' W 080°07'0 0.0
2017-Oct-27 04:34N 26°07' W 080°07'0 0.0
2017-Oct-27 03:43N 26°07' W 080°07'0 0.0
2017-Oct-27 02:46N 26°07' W 080°07'0 0.0
2017-Oct-27 02:25N 26°07' W 080°07'0 0.0
2017-Oct-27 01:58N 26°07' W 080°07'0 0.0
2017-Oct-27 01:28N 26°07' W 080°07'0 0.0
2017-Oct-27 00:43N 26°07' W 080°07'0 0.0
2017-Oct-27 00:28N 26°07' W 080°07'0 0.0
2017-Oct-26 23:58N 26°07' W 080°07'0 0.0
2017-Oct-26 23:25N 26°07' W 080°07'0 0.0
2017-Oct-26 22:58N 26°07' W 080°07'0 0.0
2017-Oct-26 20:10N 26°07' W 080°07'0 0.0
2017-Oct-26 19:55N 26°07' W 080°07'0 0.0
2017-Oct-26 17:39N 26°07' W 080°07'0 0.0
2017-Oct-26 17:24N 26°07' W 080°07'0 0.0
2017-Oct-26 16:54N 26°07' W 080°07'0 0.0
2017-Oct-26 16:21N 26°07' W 080°07'0 0.0
2017-Oct-26 15:54N 26°07' W 080°07'0 0.0
2017-Oct-26 13:06N 26°07' W 080°07'0 0.0
2017-Oct-26 12:36N 26°07' W 080°07'0 0.0
2017-Oct-26 05:44N 26°07' W 080°07'0 0.0
2017-Oct-26 02:53N 26°07' W 080°07'0 0.0
2017-Oct-26 00:43N 26°07' W 080°07'0 0.0
2017-Oct-25 18:55N 26°07' W 080°07'0 0.0
2017-Oct-25 17:37N 26°07' W 080°07'0 0.0
2017-Oct-25 17:07N 26°07' W 080°07'0 0.0
2017-Oct-25 16:25N 26°07' W 080°07'0 0.0
2017-Oct-25 13:03N 26°07' W 080°07'0 0.0
2017-Oct-25 11:44N 26°07' W 080°07'0 0.0
2017-Oct-25 11:14N 26°07' W 080°07'0 0.0
2017-Oct-25 10:56N 26°07' W 080°07'0 0.0
2017-Oct-25 10:26N 26°07' W 080°07'0 0.0
2017-Oct-25 09:55N 26°07' W 080°07'0 0.0
2017-Oct-25 09:25N 26°07' W 080°07'0 0.0
2017-Oct-25 05:49N 26°07' W 080°07'0 0.0
2017-Oct-25 05:16N 26°07' W 080°07'0 0.0
2017-Oct-25 04:58N 26°07' W 080°07'0 0.0
2017-Oct-25 04:28N 26°07' W 080°07'0 0.0
2017-Oct-25 03:49N 26°07' W 080°07'0 0.0
2017-Oct-25 03:16N 26°07' W 080°07'0 0.0
2017-Oct-25 02:46N 26°07' W 080°07'0 0.0
2017-Oct-25 02:00N 26°07' W 080°07'0 0.0
2017-Oct-25 01:15N 26°07' W 080°07'0 0.0
2017-Oct-25 00:54N 26°07' W 080°07'0 0.0
2017-Oct-25 00:27N 26°07' W 080°07'0 0.0
2017-Oct-24 23:57N 26°07' W 080°07'0 0.0
2017-Oct-24 23:24N 26°07' W 080°07'0 0.0
2017-Oct-24 22:39N 26°07' W 080°07'0 0.0
2017-Oct-24 22:18N 26°07' W 080°07'0 0.0
2017-Oct-24 21:39N 26°07' W 080°07'0 0.0
2017-Oct-24 21:24N 26°07' W 080°07'0 0.0
2017-Oct-24 20:51N 26°07' W 080°07'0 0.0
2017-Oct-24 20:18N 26°07' W 080°07'0 0.0
2017-Oct-24 19:51N 26°07' W 080°07'0 0.0
2017-Oct-24 19:20N 26°07' W 080°07'0 0.0
2017-Oct-24 18:47N 26°07' W 080°07'0 0.0
2017-Oct-24 17:32N 26°07' W 080°07'0 0.0
2017-Oct-24 17:05N 26°07' W 080°07'0 0.0
2017-Oct-24 16:53N 26°07' W 080°07'0 0.0
2017-Oct-24 03:37N 26°07' W 080°07'0 0.0
2017-Oct-24 03:22N 26°07' W 080°07'0 0.0
2017-Oct-24 02:37N 26°07' W 080°07'0 0.0
2017-Oct-23 17:23N 26°07' W 080°07'0 0.0
2017-Oct-23 16:20N 26°07' W 080°07'0 0.0
2017-Oct-23 12:02N 26°07' W 080°07'0 0.0
2017-Oct-23 10:25N 26°07' W 080°07'0 0.0
2017-Oct-23 09:55N 26°07' W 080°07'0 0.0
2017-Oct-23 09:28N 26°07' W 080°07'0 0.0
2017-Oct-23 08:43N 26°07' W 080°07'0 0.0
2017-Oct-23 07:52N 26°07' W 080°07'0 0.0
2017-Oct-23 07:25N 26°07' W 080°07'0 0.0
2017-Oct-23 06:52N 26°07' W 080°07'0 0.0
2017-Oct-23 06:22N 26°07' W 080°07'0 0.0
2017-Oct-23 05:22N 26°07' W 080°07'0 0.0
2017-Oct-23 04:33N 26°07' W 080°07'0 0.0
2017-Oct-23 04:06N 26°07' W 080°07'0 0.0
2017-Oct-23 04:00N 26°07' W 080°07'0 0.0
2017-Oct-23 02:57N 26°07' W 080°07'0 0.0
2017-Oct-23 02:27N 26°07' W 080°07'0 0.0
2017-Oct-23 00:39N 26°07' W 080°07'0 0.0
2017-Oct-23 00:24N 26°07' W 080°07'0 0.0
2017-Oct-22 23:54N 26°07' W 080°07'0 0.0
2017-Oct-22 23:12N 26°07' W 080°07'0 0.0
2017-Oct-22 21:54N 26°07' W 080°07'0 0.0
2017-Oct-22 20:53N 26°07' W 080°07'0 0.0
2017-Oct-22 20:26N 26°07' W 080°07'0 0.0
2017-Oct-22 19:23N 26°07' W 080°07'0 0.0
2017-Oct-22 18:53N 26°07' W 080°07'0 0.0
2017-Oct-22 18:23N 26°07' W 080°07'  
Track history (hours):
 
Tides and Currents Weather Stations Pressure Air Temp Water Temp Dewpoint Dewpoint Depression Visibility Wind Speed Wind Dir Waves Ship Positions

Extra Credit

Owner: Braun, Brent, Winamac, IN. More information available from US FCC via Universal Licensing System and Coast Guard Vessel Documentation Center.

Last reported at 2017-Nov-01 18:16 UTC. Time now 2017-Nov-22 16:45 UTC.
Position N 26°04' W 080°06'.
Warning: this ship's position is 20 days out of date.

Length 8 m.

Type: Pleasure craft. MMSI: 367729580.

Date/timePositionNaut miles runAvg speedWind from/ knotsBaromVisibWave heightAir tempDewpointWater temp
2017-Nov-01 18:16N 26°04' W 080°06'25 0.9
2017-Oct-31 15:05N 25°39' W 080°10'313.2
2017-Oct-31 14:53N 25°42' W 080°11'512.1
2017-Oct-31 14:30N 25°46' W 080°11'1 2.8
2017-Oct-31 14:00N 25°47' W 080°09'1 2.2
2017-Oct-31 13:30N 25°46' W 080°08'815.5
2017-Oct-31 13:00N 25°54' W 080°08'610.8
2017-Oct-31 12:30N 25°59' W 080°07'8 9.4
2017-Oct-31 11:39N 26°07' W 080°09'1 5.1
2017-Oct-31 11:27N 26°06' W 080°10'2 4.5
2017-Oct-31 10:59N 26°05' W 080°12'0 0.0
2017-Oct-31 10:22N 26°05' W 080°12'0 0.0
2017-Oct-31 09:52N 26°05' W 080°12'0 0.0
2017-Oct-31 09:19N 26°05' W 080°12'0 0.0
2017-Oct-31 08:52N 26°05' W 080°12'0 0.0
2017-Oct-31 08:22N 26°05' W 080°12'0 0.0
2017-Oct-31 07:52N 26°05' W 080°12'0 0.0
2017-Oct-31 07:22N 26°05' W 080°12'0 0.0
2017-Oct-31 06:49N 26°05' W 080°12'0 0.0
2017-Oct-31 06:22N 26°05' W 080°12'0 0.0
2017-Oct-31 05:46N 26°05' W 080°12'0 0.0
2017-Oct-31 05:22N 26°05' W 080°12'0 0.0
2017-Oct-31 04:33N 26°05' W 080°12'0 0.1
2017-Oct-31 04:30N 26°05' W 080°12'0 0.0
2017-Oct-31 04:00N 26°05' W 080°12'0 0.0
2017-Oct-31 03:30N 26°05' W 080°12'0 0.0
2017-Oct-31 02:52N 26°05' W 080°12'0 0.0
2017-Oct-31 02:22N 26°05' W 080°12'0 0.0
2017-Oct-31 01:52N 26°05' W 080°12'0 0.0
2017-Oct-31 01:19N 26°05' W 080°12'0 0.0
2017-Oct-31 00:52N 26°05' W 080°12'0 0.0
2017-Oct-31 00:22N 26°05' W 080°12'0 0.0
2017-Oct-30 23:52N 26°05' W 080°12'0 0.0
2017-Oct-30 23:30N 26°05' W 080°12'0 0.0
2017-Oct-30 22:51N 26°05' W 080°12'0 0.0
2017-Oct-30 22:21N 26°05' W 080°12'0 0.0
2017-Oct-30 21:58N 26°05' W 080°12'0 0.0
2017-Oct-30 21:28N 26°05' W 080°12'0 0.0
2017-Oct-30 20:58N 26°05' W 080°12'0 0.0
2017-Oct-30 20:28N 26°05' W 080°12'0 0.0
2017-Oct-30 19:58N 26°05' W 080°12'0 0.0
2017-Oct-30 19:28N 26°05' W 080°12'0 0.0
2017-Oct-30 18:58N 26°05' W 080°12'0 0.0
2017-Oct-30 18:28N 26°05' W 080°12'0 0.0
2017-Oct-30 17:58N 26°05' W 080°12'0 0.0
2017-Oct-30 17:28N 26°05' W 080°12'0 0.0
2017-Oct-30 16:58N 26°05' W 080°12'1 0.9
2017-Oct-30 16:25N 26°05' W 080°11'1 3.5
2017-Oct-30 16:01N 26°06' W 080°10'2 3.9
2017-Oct-30 15:22N 26°07' W 080°07'0 0.3
2017-Oct-30 14:54N 26°07' W 080°07'0 0.0
2017-Oct-30 14:24N 26°07' W 080°07'0 0.0
2017-Oct-30 13:24N 26°07' W 080°07'0 0.0
2017-Oct-30 12:39N 26°07' W 080°07'0 0.0
2017-Oct-30 12:27N 26°07' W 080°07'0 0.0
2017-Oct-30 11:57N 26°07' W 080°07'0 0.0
2017-Oct-30 11:27N 26°07' W 080°07'0 0.0
2017-Oct-30 10:57N 26°07' W 080°07'0 0.0
2017-Oct-30 10:30N 26°07' W 080°07'0 0.0
2017-Oct-30 09:48N 26°07' W 080°07'0 0.0
2017-Oct-30 08:33N 26°07' W 080°07'0 0.0
2017-Oct-30 08:18N 26°07' W 080°07'0 0.0
2017-Oct-30 07:48N 26°07' W 080°07'0 0.0
2017-Oct-30 07:18N 26°07' W 080°07'0 0.0
2017-Oct-30 07:00N 26°07' W 080°07'0 0.0
2017-Oct-30 06:27N 26°07' W 080°07'0 0.0
2017-Oct-30 06:00N 26°07' W 080°07'0 0.0
2017-Oct-30 05:24N 26°07' W 080°07'0 0.0
2017-Oct-30 04:53N 26°07' W 080°07'0 0.0
2017-Oct-30 04:23N 26°07' W 080°07'0 0.0
2017-Oct-30 03:53N 26°07' W 080°07'0 0.0
2017-Oct-30 03:20N 26°07' W 080°07'0 0.0
2017-Oct-30 02:50N 26°07' W 080°07'0 0.0
2017-Oct-30 02:20N 26°07' W 080°07'0 0.0
2017-Oct-30 01:31N 26°07' W 080°07'0 0.0
2017-Oct-30 01:28N 26°07' W 080°07'0 0.0
2017-Oct-30 00:58N 26°07' W 080°07'0 0.0
2017-Oct-30 00:16N 26°07' W 080°07'0 0.0
2017-Oct-29 23:58N 26°07' W 080°07'0 0.0
2017-Oct-29 22:57N 26°07' W 080°07'0 0.0
2017-Oct-29 18:14N 26°07' W 080°07'0 0.0
2017-Oct-29 16:29N 26°07' W 080°07'0 0.0
2017-Oct-29 14:25N 26°07' W 080°07'0 0.0
2017-Oct-29 13:55N 26°07' W 080°07'0 0.0
2017-Oct-29 13:19N 26°07' W 080°07'0 0.0
2017-Oct-29 12:22N 26°07' W 080°07'0 0.0
2017-Oct-29 11:52N 26°07' W 080°07'0 0.0
2017-Oct-29 11:19N 26°07' W 080°07'0 0.0
2017-Oct-29 10:31N 26°07' W 080°07'0 0.0
2017-Oct-29 09:19N 26°07' W 080°07'0 0.0
2017-Oct-29 08:48N 26°07' W 080°07'0 0.0
2017-Oct-29 07:48N 26°07' W 080°07'0 0.0
2017-Oct-29 07:24N 26°07' W 080°07'0 0.0
2017-Oct-29 07:00N 26°07' W 080°07'0 0.0
2017-Oct-29 06:20N 26°07' W 080°07'0 0.0
2017-Oct-29 05:56N 26°07' W 080°07'0 0.0
2017-Oct-29 05:29N 26°07' W 080°07'0 0.0
2017-Oct-29 04:56N 26°07' W 080°07'0 0.0
2017-Oct-29 04:26N 26°07' W 080°07'0 0.0
2017-Oct-29 03:37N 26°07' W 080°07'0 0.0
2017-Oct-28 18:04N 26°07' W 080°07'0 0.0
2017-Oct-28 17:49N 26°07' W 080°07'0 0.0
2017-Oct-28 17:19N 26°07' W 080°07'0 0.0
2017-Oct-28 16:34N 26°07' W 080°07'0 0.0
2017-Oct-28 16:22N 26°07' W 080°07'0 0.0
2017-Oct-28 15:52N 26°07' W 080°07'0 0.0
2017-Oct-28 15:07N 26°07' W 080°07'0 0.0
2017-Oct-28 14:40N 26°07' W 080°07'0 0.0
2017-Oct-28 14:22N 26°07' W 080°07'0 0.0
2017-Oct-28 13:54N 26°07' W 080°07'0 0.0
2017-Oct-28 13:24N 26°07' W 080°07'0 0.0
2017-Oct-28 12:51N 26°07' W 080°07'0 0.0
2017-Oct-28 12:21N 26°07' W 080°07'0 0.0
2017-Oct-28 11:58N 26°07' W 080°07'0 0.0
2017-Oct-28 11:24N 26°07' W 080°07'0 0.0
2017-Oct-28 10:54N 26°07' W 080°07'0 0.0
2017-Oct-28 10:24N 26°07' W 080°07'0 0.0
2017-Oct-28 09:51N 26°07' W 080°07'0 0.0
2017-Oct-28 09:27N 26°07' W 080°07'0 0.0
2017-Oct-28 08:54N 26°07' W 080°07'0 0.0
2017-Oct-28 08:24N 26°07' W 080°07'0 0.0
2017-Oct-28 07:57N 26°07' W 080°07'0 0.0
2017-Oct-28 07:06N 26°07' W 080°07'0 0.0
2017-Oct-28 06:54N 26°07' W 080°07'0 0.0
2017-Oct-28 06:24N 26°07' W 080°07'0 0.0
2017-Oct-28 05:51N 26°07' W 080°07'0 0.0
2017-Oct-28 05:24N 26°07' W 080°07'0 0.0
2017-Oct-28 04:54N 26°07' W 080°07'0 0.0
2017-Oct-28 04:24N 26°07' W 080°07'0 0.0
2017-Oct-28 03:54N 26°07' W 080°07'0 0.0
2017-Oct-28 03:24N 26°07' W 080°07'0 0.0
2017-Oct-28 02:48N 26°07' W 080°07'0 0.0
2017-Oct-28 02:29N 26°07' W 080°07'0 0.0
2017-Oct-28 01:50N 26°07' W 080°07'0 0.0
2017-Oct-28 01:29N 26°07' W 080°07'0 0.0
2017-Oct-28 00:02N 26°07' W 080°07'0 0.0
2017-Oct-27 23:59N 26°07' W 080°07'0 0.0
2017-Oct-27 22:59N 26°07' W 080°07'0 0.0
2017-Oct-27 22:29N 26°07' W 080°07'0 0.0
2017-Oct-27 14:52N 26°07' W 080°07'0 0.0
2017-Oct-27 14:25N 26°07' W 080°07'0 0.0
2017-Oct-27 13:55N 26°07' W 080°07'0 0.0
2017-Oct-27 13:10N 26°07' W 080°07'0 0.0
2017-Oct-27 12:52N 26°07' W 080°07'0 0.0
2017-Oct-27 12:25N 26°07' W 080°07'0 0.0
2017-Oct-27 11:40N 26°07' W 080°07'0 0.0
2017-Oct-27 11:25N 26°07' W 080°07'0 0.0
2017-Oct-27 10:52N 26°07' W 080°07'0 0.0
2017-Oct-27 10:22N 26°07' W 080°07'0 0.0
2017-Oct-27 09:49N 26°07' W 080°07'0 0.0
2017-Oct-27 09:19N 26°07' W 080°07'0 0.0
2017-Oct-27 08:55N 26°07' W 080°07'0 0.0
2017-Oct-27 08:25N 26°07' W 080°07'0 0.0
2017-Oct-27 07:49N 26°07' W 080°07'0 0.0
2017-Oct-27 07:25N 26°07' W 080°07'0 0.0
2017-Oct-27 06:55N 26°07' W 080°07'0 0.0
2017-Oct-27 06:19N 26°07' W 080°07'0 0.0
2017-Oct-27 05:55N 26°07' W 080°07'0 0.0
2017-Oct-27 05:25N 26°07' W 080°07'0 0.0
2017-Oct-27 04:34N 26°07' W 080°07'0 0.0
2017-Oct-27 03:43N 26°07' W 080°07'0 0.0
2017-Oct-27 02:46N 26°07' W 080°07'0 0.0
2017-Oct-27 02:25N 26°07' W 080°07'0 0.0
2017-Oct-27 01:58N 26°07' W 080°07'0 0.0
2017-Oct-27 01:28N 26°07' W 080°07'0 0.0
2017-Oct-27 00:43N 26°07' W 080°07'0 0.0
2017-Oct-27 00:28N 26°07' W 080°07'0 0.0
2017-Oct-26 23:58N 26°07' W 080°07'0 0.0
2017-Oct-26 23:25N 26°07' W 080°07'0 0.0
2017-Oct-26 22:58N 26°07' W 080°07'0 0.0
2017-Oct-26 20:10N 26°07' W 080°07'0 0.0
2017-Oct-26 19:55N 26°07' W 080°07'0 0.0
2017-Oct-26 17:39N 26°07' W 080°07'0 0.0
2017-Oct-26 17:24N 26°07' W 080°07'0 0.0
2017-Oct-26 16:54N 26°07' W 080°07'0 0.0
2017-Oct-26 16:21N 26°07' W 080°07'0 0.0
2017-Oct-26 15:54N 26°07' W 080°07'0 0.0
2017-Oct-26 13:06N 26°07' W 080°07'0 0.0
2017-Oct-26 12:36N 26°07' W 080°07'0 0.0
2017-Oct-26 05:44N 26°07' W 080°07'0 0.0
2017-Oct-26 02:53N 26°07' W 080°07'0 0.0
2017-Oct-26 00:43N 26°07' W 080°07'0 0.0
2017-Oct-25 18:55N 26°07' W 080°07'0 0.0
2017-Oct-25 17:37N 26°07' W 080°07'0 0.0
2017-Oct-25 17:07N 26°07' W 080°07'0 0.0
2017-Oct-25 16:25N 26°07' W 080°07'0 0.0
2017-Oct-25 13:03N 26°07' W 080°07'0 0.0
2017-Oct-25 11:44N 26°07' W 080°07'0 0.0
2017-Oct-25 11:14N 26°07' W 080°07'0 0.0
2017-Oct-25 10:56N 26°07' W 080°07'0 0.0
2017-Oct-25 10:26N 26°07' W 080°07'0 0.0
2017-Oct-25 09:55N 26°07' W 080°07'0 0.0
2017-Oct-25 09:25N 26°07' W 080°07'0 0.0
2017-Oct-25 05:49N 26°07' W 080°07'0 0.0
2017-Oct-25 05:16N 26°07' W 080°07'0 0.0
2017-Oct-25 04:58N 26°07' W 080°07'0 0.0
2017-Oct-25 04:28N 26°07' W 080°07'0 0.0
2017-Oct-25 03:49N 26°07' W 080°07'0 0.0
2017-Oct-25 03:16N 26°07' W 080°07'0 0.0
2017-Oct-25 02:46N 26°07' W 080°07'0 0.0
2017-Oct-25 02:00N 26°07' W 080°07'0 0.0
2017-Oct-25 01:15N 26°07' W 080°07'0 0.0
2017-Oct-25 00:54N 26°07' W 080°07'0 0.0
2017-Oct-25 00:27N 26°07' W 080°07'0 0.0
2017-Oct-24 23:57N 26°07' W 080°07'0 0.0
2017-Oct-24 23:24N 26°07' W 080°07'0 0.0
2017-Oct-24 22:39N 26°07' W 080°07'0 0.0
2017-Oct-24 22:18N 26°07' W 080°07'0 0.0
2017-Oct-24 21:39N 26°07' W 080°07'0 0.0
2017-Oct-24 21:24N 26°07' W 080°07'0 0.0
2017-Oct-24 20:51N 26°07' W 080°07'0 0.0
2017-Oct-24 20:18N 26°07' W 080°07'0 0.0
2017-Oct-24 19:51N 26°07' W 080°07'0 0.0
2017-Oct-24 19:20N 26°07' W 080°07'0 0.0
2017-Oct-24 18:47N 26°07' W 080°07'0 0.0
2017-Oct-24 17:32N 26°07' W 080°07'0 0.0
2017-Oct-24 17:05N 26°07' W 080°07'0 0.0
2017-Oct-24 16:53N 26°07' W 080°07'0 0.0
2017-Oct-24 03:37N 26°07' W 080°07'0 0.0
2017-Oct-24 03:22N 26°07' W 080°07'0 0.0
2017-Oct-24 02:37N 26°07' W 080°07'0 0.0
2017-Oct-23 17:23N 26°07' W 080°07'0 0.0
2017-Oct-23 16:20N 26°07' W 080°07'0 0.0
2017-Oct-23 12:02N 26°07' W 080°07'0 0.0
2017-Oct-23 10:25N 26°07' W 080°07'0 0.0
2017-Oct-23 09:55N 26°07' W 080°07'0 0.0
2017-Oct-23 09:28N 26°07' W 080°07'0 0.0
2017-Oct-23 08:43N 26°07' W 080°07'0 0.0
2017-Oct-23 07:52N 26°07' W 080°07'0 0.0
2017-Oct-23 07:25N 26°07' W 080°07'0 0.0
2017-Oct-23 06:52N 26°07' W 080°07'0 0.0
2017-Oct-23 06:22N 26°07' W 080°07'0 0.0
2017-Oct-23 05:22N 26°07' W 080°07'0 0.0
2017-Oct-23 04:33N 26°07' W 080°07'0 0.0
2017-Oct-23 04:06N 26°07' W 080°07'0 0.0
2017-Oct-23 04:00N 26°07' W 080°07'0 0.0
2017-Oct-23 02:57N 26°07' W 080°07'0 0.0
2017-Oct-23 02:27N 26°07' W 080°07'0 0.0
2017-Oct-23 00:39N 26°07' W 080°07'0 0.0
2017-Oct-23 00:24N 26°07' W 080°07'0 0.0
2017-Oct-22 23:54N 26°07' W 080°07'0 0.0
2017-Oct-22 23:12N 26°07' W 080°07'0 0.0
2017-Oct-22 21:54N 26°07' W 080°07'0 0.0
2017-Oct-22 20:53N 26°07' W 080°07'0 0.0
2017-Oct-22 20:26N 26°07' W 080°07'0 0.0
2017-Oct-22 19:23N 26°07' W 080°07'0 0.0
2017-Oct-22 18:53N 26°07' W 080°07'0 0.0
2017-Oct-22 18:23N 26°07' W 080°07'  

Dump ship's entire track history